Time;durP1;ratioP1;P1;durP2;ratioP2;P2;SDS_P1;SDS_P2;PMS_P1;PMS_P2;Temp;Humidity;BMP_temperature;BMP_pressure;BME280_temperature;BME280_humidity;BME280_pressure;Samples;Min_cycle;Max_cycle;Signal;HPM_P1;HPM_P2
2024/02/29 00:02:10;;;;;;;1.97;1.80;;;21.30;67.60;;;;;;5002644;28;20199;-72
2024/02/29 00:04:37;;;;;;;2.22;2.03;;;21.30;67.60;;;;;;5002259;28;20465;-72
2024/02/29 00:07:04;;;;;;;2.88;2.42;;;21.30;67.70;;;;;;5005087;28;20207;-70
2024/02/29 00:09:31;;;;;;;2.90;2.28;;;21.30;67.60;;;;;;5003120;28;20256;-70
2024/02/29 00:11:58;;;;;;;2.10;1.67;;;21.20;67.50;;;;;;5004433;28;20200;-72
2024/02/29 00:14:25;;;;;;;2.67;2.30;;;21.30;67.60;;;;;;5002180;28;20485;-72
2024/02/29 00:16:53;;;;;;;1.80;1.70;;;21.30;67.60;;;;;;5000893;28;20199;-72
2024/02/29 00:19:20;;;;;;;2.30;2.10;;;21.30;67.60;;;;;;5003950;28;20205;-71
2024/02/29 00:21:47;;;;;;;2.70;2.50;;;21.20;67.60;;;;;;5005580;28;20199;-70
2024/02/29 00:24:14;;;;;;;2.33;2.13;;;21.20;67.70;;;;;;5002532;28;21095;-71
2024/02/29 00:26:41;;;;;;;2.63;2.00;;;21.20;67.80;;;;;;5000482;28;20469;-72
2024/02/29 00:29:08;;;;;;;2.30;1.88;;;21.20;67.80;;;;;;5007842;28;20199;-71
2024/02/29 00:31:35;;;;;;;1.83;1.73;;;21.20;67.80;;;;;;5004960;28;20653;-71
2024/02/29 00:34:03;;;;;;;2.03;1.83;;;21.20;67.70;;;;;;5003381;28;20193;-72
2024/02/29 00:36:30;;;;;;;2.65;2.35;;;21.20;67.90;;;;;;5004156;28;20196;-72
2024/02/29 00:38:56;;;;;;;2.40;2.20;;;21.20;67.90;;;;;;5000034;28;20198;-71
2024/02/29 00:41:23;;;;;;;2.57;2.37;;;21.20;67.90;;;;;;4995474;28;20200;-71
2024/02/29 00:43:50;;;;;;;2.35;2.15;;;21.20;67.80;;;;;;5004053;28;20451;-72
2024/02/29 00:46:16;;;;;;;3.45;2.22;;;21.20;67.90;;;;;;5001723;28;20208;-71
2024/02/29 00:48:43;;;;;;;2.45;2.25;;;21.20;67.90;;;;;;5001512;28;20640;-71
2024/02/29 00:51:11;;;;;;;2.27;1.90;;;21.20;67.90;;;;;;4992807;28;20224;-73
2024/02/29 00:53:38;;;;;;;2.20;2.00;;;21.10;67.80;;;;;;5001530;28;20464;-72
2024/02/29 00:56:05;;;;;;;2.37;2.17;;;21.20;67.80;;;;;;5000820;28;20196;-72
2024/02/29 00:58:32;;;;;;;2.45;1.88;;;21.10;67.80;;;;;;5000304;28;21158;-72
2024/02/29 01:01:00;;;;;;;2.38;2.10;;;21.10;67.90;;;;;;4996044;28;20211;-74
2024/02/29 01:03:27;;;;;;;2.22;1.92;;;21.10;67.90;;;;;;5005868;28;20192;-71
2024/02/29 01:05:53;;;;;;;2.38;2.17;;;21.10;67.90;;;;;;5001272;28;20707;-71
2024/02/29 01:08:22;;;;;;;1.80;1.70;;;21.10;67.90;;;;;;5004761;28;20202;-72
2024/02/29 01:10:48;;;;;;;2.30;2.10;;;21.10;67.90;;;;;;4995504;28;20235;-71
2024/02/29 01:13:15;;;;;;;2.60;2.40;;;21.10;68.00;;;;;;5002762;28;20194;-72
2024/02/29 01:15:42;;;;;;;2.25;1.90;;;21.10;67.90;;;;;;5005097;28;20201;-72
2024/02/29 01:18:09;;;;;;;2.42;2.22;;;21.10;68.00;;;;;;5006189;28;20279;-72
2024/02/29 01:20:35;;;;;;;2.13;1.95;;;21.10;67.90;;;;;;5003202;28;20200;-72
2024/02/29 01:23:03;;;;;;;2.67;1.90;;;21.00;67.80;;;;;;5003934;28;20530;-70
2024/02/29 01:25:31;;;;;;;2.60;2.30;;;21.10;68.00;;;;;;4998043;28;20204;-73
2024/02/29 01:27:58;;;;;;;2.20;1.80;;;21.10;67.90;;;;;;5005175;28;20211;-70
2024/02/29 01:30:25;;;;;;;2.30;2.00;;;21.10;68.00;;;;;;4999176;28;20365;-72
2024/02/29 01:32:51;;;;;;;1.98;1.88;;;21.10;68.00;;;;;;5006457;28;20218;-72
2024/02/29 01:35:18;;;;;;;1.92;1.73;;;21.00;67.90;;;;;;4996911;28;20209;-71
2024/02/29 01:37:45;;;;;;;1.88;1.67;;;21.00;67.90;;;;;;5000898;28;20451;-71
2024/02/29 01:40:11;;;;;;;3.13;2.10;;;21.00;68.00;;;;;;5003977;28;20204;-71
2024/02/29 01:42:42;;;;;;;2.50;2.30;;;21.00;67.90;;;;;;5003402;28;20207;-71
2024/02/29 01:45:09;;;;;;;3.60;2.40;;;21.00;67.90;;;;;;4999740;28;20207;-70
2024/02/29 01:47:36;;;;;;;2.05;1.70;;;21.00;67.90;;;;;;5004034;28;20204;-70
2024/02/29 01:50:03;;;;;;;2.33;2.00;;;21.00;68.10;;;;;;5002512;28;20327;-71
2024/02/29 01:52:33;;;;;;;2.50;2.30;;;21.00;68.00;;;;;;4997281;28;22467;-70
2024/02/29 01:55:02;;;;;;;2.83;2.20;;;21.00;68.00;;;;;;4985281;28;20760;-71
2024/02/29 01:57:29;;;;;;;2.15;2.05;;;21.00;68.10;;;;;;5002815;28;20777;-72
2024/02/29 01:59:58;;;;;;;2.00;1.65;;;21.00;68.80;;;;;;5001797;28;20195;-71
2024/02/29 02:02:25;;;;;;;2.10;1.90;;;21.00;68.10;;;;;;4998023;28;20692;-70
2024/02/29 02:04:51;;;;;;;2.35;2.15;;;21.00;68.10;;;;;;5000906;28;20200;-70
2024/02/29 02:07:18;;;;;;;2.50;2.30;;;21.00;68.20;;;;;;5001584;28;20683;-71
2024/02/29 02:09:45;;;;;;;2.25;2.00;;;21.00;68.10;;;;;;4999290;28;20428;-71
2024/02/29 02:12:12;;;;;;;2.17;1.92;;;21.00;68.10;;;;;;5002190;28;20219;-71
2024/02/29 02:14:38;;;;;;;1.77;1.50;;;21.00;68.10;;;;;;4997106;28;20204;-70
2024/02/29 02:17:07;;;;;;;2.00;1.83;;;21.00;68.10;;;;;;5003083;28;20278;-72
2024/02/29 02:19:33;;;;;;;2.45;1.95;;;20.90;67.90;;;;;;5001554;28;20203;-72
2024/02/29 02:22:04;;;;;;;2.30;2.10;;;21.00;68.10;;;;;;4999356;28;20580;-70
2024/02/29 02:24:31;;;;;;;2.20;2.00;;;21.00;68.90;;;;;;5002682;28;20224;-70
2024/02/29 02:26:58;;;;;;;2.25;1.90;;;20.90;67.80;;;;;;5001867;28;20211;-71
2024/02/29 02:29:24;;;;;;;1.90;1.70;;;21.00;68.10;;;;;;5002976;28;20215;-71
2024/02/29 02:31:51;;;;;;;2.55;2.35;;;20.90;68.10;;;;;;5005176;28;20730;-71
2024/02/29 02:34:18;;;;;;;2.30;1.60;;;20.90;68.80;;;;;;5005538;28;20196;-72
2024/02/29 02:36:45;;;;;;;2.00;1.80;;;20.90;68.10;;;;;;5003492;28;20197;-72
2024/02/29 02:39:13;;;;;;;2.85;1.90;;;20.90;68.10;;;;;;5003973;28;20202;-71
2024/02/29 02:41:40;;;;;;;2.20;2.00;;;20.90;68.10;;;;;;5003317;28;20211;-71
2024/02/29 02:44:06;;;;;;;2.95;2.25;;;21.00;68.20;;;;;;5000603;28;20355;-72
2024/02/29 02:46:33;;;;;;;2.30;2.00;;;20.90;68.10;;;;;;5002254;28;20878;-72
2024/02/29 02:48:59;;;;;;;2.90;2.10;;;20.90;68.10;;;;;;5003849;28;20656;-72
2024/02/29 02:51:27;;;;;;;1.80;1.40;;;20.90;68.20;;;;;;5003227;28;20216;-72
2024/02/29 02:53:53;;;;;;;1.83;1.63;;;20.90;68.20;;;;;;4999458;28;20339;-73
2024/02/29 02:56:21;;;;;;;2.35;1.98;;;20.90;68.20;;;;;;5002058;28;20657;-72
2024/02/29 02:58:48;;;;;;;2.20;1.98;;;20.90;68.20;;;;;;5004226;28;20196;-71
2024/02/29 03:01:15;;;;;;;2.10;1.90;;;20.90;68.20;;;;;;5005218;28;20207;-70
2024/02/29 03:03:41;;;;;;;2.25;2.00;;;20.90;68.10;;;;;;5000538;28;20203;-72
2024/02/29 03:06:09;;;;;;;2.10;1.80;;;20.90;68.10;;;;;;5006846;28;20566;-74
2024/02/29 03:08:35;;;;;;;2.65;2.45;;;20.90;68.10;;;;;;5003738;28;20685;-72
2024/02/29 03:11:02;;;;;;;2.85;2.15;;;20.90;68.20;;;;;;5002223;28;20221;-72
2024/02/29 03:13:30;;;;;;;1.98;1.70;;;20.90;68.20;;;;;;5005381;28;20212;-72
2024/02/29 03:15:57;;;;;;;2.35;2.15;;;20.90;68.20;;;;;;5002180;28;20200;-72
2024/02/29 03:18:23;;;;;;;1.98;1.77;;;20.90;68.20;;;;;;5011092;28;20212;-71
2024/02/29 03:20:50;;;;;;;2.25;1.77;;;20.90;68.20;;;;;;5005646;28;20199;-71
2024/02/29 03:23:17;;;;;;;2.30;1.90;;;20.90;68.10;;;;;;5005345;28;20382;-70
2024/02/29 03:25:44;;;;;;;2.03;1.48;;;20.90;68.20;;;;;;5007481;28;20282;-73
2024/02/29 03:28:11;;;;;;;2.00;1.73;;;20.90;68.20;;;;;;4997689;28;20192;-71
2024/02/29 03:30:39;;;;;;;2.15;1.85;;;20.90;68.30;;;;;;5001466;28;20228;-70
2024/02/29 03:33:07;;;;;;;2.20;2.00;;;20.90;68.20;;;;;;5000514;28;20775;-70
2024/02/29 03:35:33;;;;;;;1.67;1.40;;;20.90;68.20;;;;;;5003701;28;20200;-70
2024/02/29 03:38:00;;;;;;;2.42;2.03;;;20.90;68.20;;;;;;5004856;28;20542;-72
2024/02/29 03:40:27;;;;;;;1.80;1.70;;;20.90;68.20;;;;;;4997613;28;20196;-72
2024/02/29 03:42:54;;;;;;;1.95;1.67;;;20.90;68.30;;;;;;5003299;28;20205;-72
2024/02/29 03:45:21;;;;;;;2.47;2.20;;;20.80;68.20;;;;;;5000135;28;20619;-71
2024/02/29 03:47:49;;;;;;;2.60;2.40;;;20.80;68.20;;;;;;4999237;28;20197;-70
2024/02/29 03:50:16;;;;;;;2.15;1.95;;;20.80;68.20;;;;;;4997041;28;20307;-71
2024/02/29 03:52:42;;;;;;;2.38;2.17;;;20.80;68.30;;;;;;5002330;28;20196;-72
2024/02/29 03:55:11;;;;;;;2.13;1.70;;;20.80;69.00;;;;;;5000838;28;20200;-70
2024/02/29 03:57:37;;;;;;;1.75;1.63;;;20.80;68.20;;;;;;5002996;28;20441;-72
2024/02/29 04:00:10;;;;;;;1.85;1.65;;;20.80;68.20;;;;;;5012053;28;20197;-71
2024/02/29 04:02:37;;;;;;;2.03;1.83;;;20.80;68.20;;;;;;5006704;28;20214;-71
2024/02/29 04:05:07;;;;;;;2.30;2.10;;;20.80;68.20;;;;;;4997971;28;20204;-71
2024/02/29 04:07:36;;;;;;;2.38;1.60;;;20.80;68.30;;;;;;5002116;28;20706;-71
2024/02/29 04:10:03;;;;;;;1.65;1.55;;;20.80;68.30;;;;;;5006047;28;20204;-71
2024/02/29 04:12:30;;;;;;;2.10;1.83;;;20.80;68.20;;;;;;5003284;28;20860;-71
2024/02/29 04:14:57;;;;;;;2.40;1.55;;;20.80;68.30;;;;;;5000750;28;20215;-73
2024/02/29 04:17:24;;;;;;;2.15;1.83;;;20.80;68.20;;;;;;4996299;28;25065;-71
2024/02/29 04:19:51;;;;;;;1.55;1.42;;;20.80;68.30;;;;;;5004667;28;20199;-72
2024/02/29 04:22:19;;;;;;;2.05;1.85;;;20.80;68.30;;;;;;4999875;28;20688;-72
2024/02/29 04:24:45;;;;;;;2.85;2.35;;;20.80;68.30;;;;;;4999777;28;20199;-72
2024/02/29 04:27:12;;;;;;;1.90;1.70;;;20.80;68.30;;;;;;5004405;28;20231;-72
2024/02/29 04:29:39;;;;;;;2.00;1.80;;;20.80;68.30;;;;;;5002142;28;20195;-72
2024/02/29 04:32:07;;;;;;;2.20;2.00;;;20.80;68.30;;;;;;4997731;28;20220;-72
2024/02/29 04:34:33;;;;;;;1.73;1.60;;;20.80;68.30;;;;;;4999885;28;20678;-72
2024/02/29 04:37:00;;;;;;;2.10;1.90;;;20.80;68.30;;;;;;5001225;28;20326;-72
2024/02/29 04:39:28;;;;;;;1.65;1.50;;;20.80;68.30;;;;;;5000547;28;20192;-71
2024/02/29 04:41:55;;;;;;;2.38;2.17;;;20.80;68.30;;;;;;5000391;28;20212;-72
2024/02/29 04:44:22;;;;;;;1.58;1.48;;;20.80;68.30;;;;;;5002405;28;20203;-72
2024/02/29 04:46:48;;;;;;;2.17;1.58;;;20.70;68.20;;;;;;5000156;28;20200;-71
2024/02/29 04:49:15;;;;;;;2.20;1.80;;;20.70;68.20;;;;;;5001520;28;20203;-70
2024/02/29 04:51:42;;;;;;;1.52;1.42;;;20.70;68.20;;;;;;5000701;28;20585;-70
2024/02/29 04:54:08;;;;;;;1.45;1.35;;;20.70;68.10;;;;;;5003623;28;20192;-72
2024/02/29 04:56:37;;;;;;;1.85;1.65;;;20.80;68.30;;;;;;5002915;28;20803;-68
2024/02/29 04:59:06;;;;;;;2.55;2.08;;;20.70;68.20;;;;;;5001958;28;20842;-73
2024/02/29 05:01:32;;;;;;;2.25;2.03;;;20.70;68.20;;;;;;5000830;28;20208;-69
2024/02/29 05:03:59;;;;;;;1.52;1.35;;;20.70;68.20;;;;;;4995310;28;20215;-74
2024/02/29 05:06:27;;;;;;;1.67;1.58;;;20.70;68.30;;;;;;4999276;28;20200;-73
2024/02/29 05:08:54;;;;;;;1.67;1.58;;;20.70;68.20;;;;;;5000835;28;20207;-74
2024/02/29 05:11:21;;;;;;;1.70;1.38;;;20.70;68.30;;;;;;5001407;28;20243;-71
2024/02/29 05:13:49;;;;;;;1.98;1.77;;;20.70;68.20;;;;;;5002473;28;20207;-71
2024/02/29 05:16:18;;;;;;;2.20;2.00;;;20.70;68.30;;;;;;4997069;28;20635;-69
2024/02/29 05:18:44;;;;;;;1.60;1.45;;;20.70;68.30;;;;;;5004641;28;20196;-72
2024/02/29 05:21:11;;;;;;;2.00;1.58;;;20.70;68.30;;;;;;5006179;28;20197;-72
2024/02/29 05:23:38;;;;;;;2.15;1.70;;;20.70;68.30;;;;;;5004854;28;20246;-71
2024/02/29 05:26:05;;;;;;;1.58;1.45;;;20.70;68.30;;;;;;5003177;28;20192;-71
2024/02/29 05:28:33;;;;;;;1.90;1.60;;;20.70;68.30;;;;;;5005738;28;20192;-70
2024/02/29 05:31:01;;;;;;;1.63;1.50;;;20.70;68.20;;;;;;5006976;28;20224;-71
2024/02/29 05:33:28;;;;;;;1.67;1.58;;;20.70;68.30;;;;;;4996419;28;20204;-71
2024/02/29 05:35:55;;;;;;;1.88;1.77;;;20.70;68.30;;;;;;5002497;28;20237;-70
2024/02/29 05:38:21;;;;;;;2.13;1.92;;;20.70;68.30;;;;;;5006303;28;20219;-71
2024/02/29 05:40:48;;;;;;;1.73;1.45;;;20.70;68.20;;;;;;5007631;28;20644;-72
2024/02/29 05:43:15;;;;;;;1.52;1.27;;;20.70;68.20;;;;;;5003672;28;20191;-71
2024/02/29 05:45:42;;;;;;;2.00;1.75;;;20.70;68.40;;;;;;5003918;28;20201;-72
2024/02/29 05:48:10;;;;;;;2.42;2.10;;;20.70;68.40;;;;;;5006578;28;20196;-70
2024/02/29 05:50:37;;;;;;;1.70;1.52;;;20.60;68.20;;;;;;4995620;28;20585;-72
2024/02/29 05:53:04;;;;;;;1.70;1.60;;;20.60;68.20;;;;;;5005409;28;20231;-72
2024/02/29 05:55:31;;;;;;;2.28;2.08;;;20.60;68.20;;;;;;5009922;28;20200;-71
2024/02/29 05:57:57;;;;;;;2.08;1.75;;;20.60;68.10;;;;;;5005073;28;20287;-69
2024/02/29 06:00:24;;;;;;;1.77;1.67;;;20.60;68.10;;;;;;5008330;28;20192;-71
2024/02/29 06:02:51;;;;;;;1.63;1.52;;;20.60;68.20;;;;;;5001474;28;20203;-70
2024/02/29 06:05:20;;;;;;;1.60;1.40;;;20.60;68.10;;;;;;5006595;28;20677;-71
2024/02/29 06:07:46;;;;;;;1.80;1.65;;;20.60;68.20;;;;;;5007424;28;20458;-71
2024/02/29 06:10:13;;;;;;;2.50;1.98;;;20.60;68.20;;;;;;5006352;28;20202;-71
2024/02/29 06:12:40;;;;;;;2.60;2.40;;;20.60;68.20;;;;;;5000277;28;20231;-72
2024/02/29 06:15:08;;;;;;;2.10;1.65;;;20.60;68.20;;;;;;5002755;28;20458;-71
2024/02/29 06:17:35;;;;;;;2.03;1.83;;;20.60;69.00;;;;;;5002440;28;21071;-72
2024/02/29 06:20:03;;;;;;;1.75;1.65;;;20.60;68.20;;;;;;5007779;28;20740;-73
2024/02/29 06:22:31;;;;;;;2.05;1.63;;;20.60;68.20;;;;;;4995715;28;20325;-72
2024/02/29 06:24:58;;;;;;;2.22;2.03;;;20.60;68.20;;;;;;5006122;28;20204;-71
2024/02/29 06:27:27;;;;;;;2.00;1.65;;;20.60;68.30;;;;;;5004348;28;20486;-71
2024/02/29 06:29:54;;;;;;;1.55;1.35;;;20.70;68.40;;;;;;5007551;28;20291;-73
2024/02/29 06:32:22;;;;;;;2.22;2.03;;;20.60;68.20;;;;;;5001778;28;20219;-69
2024/02/29 06:34:49;;;;;;;2.00;1.83;;;20.60;68.20;;;;;;5004855;28;20200;-71
2024/02/29 06:37:16;;;;;;;1.75;1.50;;;20.60;68.10;;;;;;5003999;28;20210;-71
2024/02/29 06:39:44;;;;;;;2.10;1.90;;;20.60;68.20;;;;;;4991743;28;20187;-72
2024/02/29 06:42:11;;;;;;;2.10;1.80;;;20.60;68.40;;;;;;5006561;28;20203;-71
2024/02/29 06:44:38;;;;;;;2.15;1.98;;;20.60;68.30;;;;;;5004611;28;20903;-72
2024/02/29 06:47:04;;;;;;;1.83;1.73;;;20.60;68.20;;;;;;5006193;28;20283;-72
2024/02/29 06:49:31;;;;;;;1.80;1.70;;;20.60;68.30;;;;;;5005148;28;20207;-71
2024/02/29 06:51:58;;;;;;;1.90;1.70;;;20.60;68.20;;;;;;4995227;28;20224;-71
2024/02/29 06:54:24;;;;;;;1.73;1.63;;;20.60;68.30;;;;;;4997176;28;20196;-70
2024/02/29 06:56:53;;;;;;;1.98;1.77;;;20.60;68.30;;;;;;5006209;28;20200;-72
2024/02/29 06:59:20;;;;;;;1.58;1.48;;;20.60;68.20;;;;;;5007361;28;20220;-71
2024/02/29 07:01:47;;;;;;;2.20;1.75;;;20.60;68.30;;;;;;5000955;28;20203;-75
2024/02/29 07:04:14;;;;;;;1.55;1.45;;;20.60;68.20;;;;;;5006172;28;20235;-74
2024/02/29 07:06:40;;;;;;;1.70;1.40;;;20.60;68.20;;;;;;5005801;28;20196;-74
2024/02/29 07:09:07;;;;;;;2.15;1.95;;;20.50;68.20;;;;;;5003036;28;20793;-73
2024/02/29 07:11:34;;;;;;;1.70;1.60;;;20.60;68.20;;;;;;5001980;28;20220;-71
2024/02/29 07:14:02;;;;;;;1.85;1.75;;;20.60;69.20;;;;;;4997690;28;20204;-73
2024/02/29 07:16:29;;;;;;;1.92;1.83;;;20.60;68.20;;;;;;5004285;28;20220;-72
2024/02/29 07:18:56;;;;;;;1.70;1.50;;;20.60;68.30;;;;;;5005953;28;20199;-72
2024/02/29 07:21:22;;;;;;;2.17;1.65;;;20.60;68.40;;;;;;5003212;28;21383;-73
2024/02/29 07:23:49;;;;;;;1.98;1.77;;;20.60;68.30;;;;;;4997359;28;24629;-73
2024/02/29 07:26:16;;;;;;;1.70;1.60;;;20.50;68.20;;;;;;5004973;28;20367;-74
2024/02/29 07:28:42;;;;;;;1.80;1.55;;;20.60;68.50;;;;;;5004186;28;20323;-75
2024/02/29 07:31:11;;;;;;;2.25;1.73;;;20.60;68.40;;;;;;4998690;28;20203;-74
2024/02/29 07:33:38;;;;;;;1.45;1.35;;;20.60;68.50;;;;;;5001136;28;20231;-71
2024/02/29 07:36:06;;;;;;;2.03;1.75;;;20.60;68.50;;;;;;5003081;28;20608;-75
2024/02/29 07:38:32;;;;;;;1.75;1.50;;;20.60;68.50;;;;;;4998229;28;20359;-74
2024/02/29 07:40:59;;;;;;;1.70;1.50;;;20.60;68.40;;;;;;5002815;28;20192;-71
2024/02/29 07:43:26;;;;;;;1.85;1.50;;;20.70;68.60;;;;;;4999971;28;20197;-71
2024/02/29 07:45:53;;;;;;;1.42;1.33;;;20.70;68.50;;;;;;5005610;28;20200;-75
2024/02/29 07:48:21;;;;;;;1.73;1.55;;;20.70;68.50;;;;;;5003463;28;20216;-73
2024/02/29 07:50:47;;;;;;;2.13;1.92;;;20.70;68.70;;;;;;5002664;28;20611;-74
2024/02/29 07:53:14;;;;;;;1.80;1.52;;;20.70;68.60;;;;;;4999540;28;20231;-72
2024/02/29 07:55:41;;;;;;;1.90;1.60;;;20.70;68.50;;;;;;5004683;28;20192;-74
2024/02/29 07:58:07;;;;;;;1.73;1.60;;;20.70;68.50;;;;;;4997470;28;20705;-76
2024/02/29 08:00:36;;;;;;;1.90;1.67;;;20.70;68.60;;;;;;5000115;28;20200;-74
2024/02/29 08:03:04;;;;;;;1.90;1.63;;;20.80;68.70;;;;;;5004067;28;20290;-72
2024/02/29 08:05:32;;;;;;;3.47;1.50;;;20.80;68.50;;;;;;4997933;28;20196;-75
2024/02/29 08:07:59;;;;;;;2.00;1.80;;;20.80;68.60;;;;;;5007279;28;20584;-74
2024/02/29 08:10:25;;;;;;;1.85;1.40;;;20.80;68.60;;;;;;5005129;28;22052;-71
2024/02/29 08:12:52;;;;;;;1.65;1.45;;;20.80;68.70;;;;;;5009424;28;20227;-70
2024/02/29 08:15:19;;;;;;;1.70;1.60;;;20.80;68.80;;;;;;4999848;28;20581;-72
2024/02/29 08:17:46;;;;;;;1.90;1.55;;;20.80;68.70;;;;;;4999268;28;20199;-71
2024/02/29 08:20:13;;;;;;;1.67;1.42;;;20.80;68.70;;;;;;5004889;28;20214;-72
2024/02/29 08:22:41;;;;;;;1.33;1.23;;;20.80;68.70;;;;;;5002758;28;20208;-72
2024/02/29 08:25:09;;;;;;;1.67;1.58;;;20.90;68.80;;;;;;5004890;28;20203;-73
2024/02/29 08:27:37;;;;;;;1.30;1.20;;;20.90;68.70;;;;;;5002755;28;20207;-71
2024/02/29 08:30:04;;;;;;;2.03;1.48;;;20.90;68.70;;;;;;5000678;28;20205;-68
2024/02/29 08:32:31;;;;;;;2.28;1.80;;;20.90;68.70;;;;;;4989075;28;20216;-70
2024/02/29 08:34:58;;;;;;;1.40;1.25;;;20.90;68.70;;;;;;4999087;28;20804;-70
2024/02/29 08:37:24;;;;;;;2.08;1.50;;;20.90;68.80;;;;;;4999952;28;20203;-71
2024/02/29 08:39:52;;;;;;;1.50;1.30;;;20.90;68.70;;;;;;5002053;28;20218;-70
2024/02/29 08:42:19;;;;;;;1.70;1.60;;;20.90;68.80;;;;;;5003186;28;20204;-72
2024/02/29 08:44:48;;;;;;;2.05;1.85;;;20.90;68.70;;;;;;5001804;28;20409;-69
2024/02/29 08:47:14;;;;;;;1.77;1.60;;;20.90;68.80;;;;;;5003176;28;20199;-70
2024/02/29 08:49:41;;;;;;;1.83;1.52;;;20.90;68.70;;;;;;5004763;28;20192;-72
2024/02/29 08:52:08;;;;;;;1.40;1.30;;;20.90;68.70;;;;;;5004350;28;20232;-72
2024/02/29 08:54:35;;;;;;;1.63;1.48;;;20.90;68.70;;;;;;5000635;28;20198;-71
2024/02/29 08:57:04;;;;;;;1.60;1.38;;;20.90;68.80;;;;;;5005744;28;20327;-71
2024/02/29 08:59:32;;;;;;;1.50;1.30;;;20.90;68.80;;;;;;5001805;28;20207;-71
2024/02/29 09:01:59;;;;;;;1.70;1.55;;;20.90;68.80;;;;;;5002717;28;20284;-71
2024/02/29 09:04:26;;;;;;;1.45;1.35;;;20.90;68.80;;;;;;5007122;28;20667;-70
2024/02/29 09:06:52;;;;;;;2.20;1.70;;;20.90;68.80;;;;;;5001307;28;20248;-72
2024/02/29 09:09:19;;;;;;;1.35;1.25;;;20.90;68.80;;;;;;5005531;28;20661;-71
2024/02/29 09:11:47;;;;;;;4.13;1.70;;;20.90;68.80;;;;;;4998995;28;20212;-72
2024/02/29 09:14:15;;;;;;;1.45;1.20;;;20.90;68.80;;;;;;5008746;28;20226;-72
2024/02/29 09:16:42;;;;;;;1.50;1.40;;;21.00;69.00;;;;;;5001320;28;20203;-73
2024/02/29 09:19:09;;;;;;;1.90;1.38;;;20.90;68.80;;;;;;4997325;28;20199;-69
2024/02/29 09:21:36;;;;;;;1.70;1.60;;;20.90;68.80;;;;;;5000219;28;22596;-72
2024/02/29 09:24:03;;;;;;;2.22;1.38;;;21.00;68.90;;;;;;4999035;28;20204;-71
2024/02/29 09:26:31;;;;;;;1.30;1.20;;;21.00;68.80;;;;;;4994454;28;20200;-71
2024/02/29 09:28:58;;;;;;;1.50;1.38;;;21.00;68.80;;;;;;5001199;28;20277;-71
2024/02/29 09:31:26;;;;;;;1.27;1.10;;;21.00;68.80;;;;;;5003262;28;20193;-72
2024/02/29 09:33:53;;;;;;;1.83;1.60;;;21.00;68.90;;;;;;5005544;28;20305;-72
2024/02/29 09:36:20;;;;;;;2.25;1.33;;;21.00;68.80;;;;;;4997619;28;20310;-70
2024/02/29 09:38:47;;;;;;;1.70;1.60;;;;;;;;;;5001953;28;20466;-70
2024/02/29 09:41:15;;;;;;;1.33;1.23;;;21.10;83.10;;;;;;5007254;28;20295;-71
2024/02/29 09:43:44;;;;;;;1.60;1.50;;;21.10;86.30;;;;;;5003378;28;20672;-69
2024/02/29 09:46:11;;;;;;;1.40;1.30;;;21.20;79.30;;;;;;5007376;28;20200;-68
2024/02/29 09:48:40;;;;;;;1.80;1.55;;;21.10;76.60;;;;;;5006506;28;20906;-70
2024/02/29 09:51:07;;;;;;;1.37;1.27;;;21.10;75.70;;;;;;4999493;28;20199;-70
2024/02/29 09:53:35;;;;;;;1.45;1.10;;;21.00;74.80;;;;;;5005715;28;20493;-70
2024/02/29 09:56:03;;;;;;;1.50;1.40;;;21.10;74.40;;;;;;5001607;28;20303;-70
2024/02/29 09:58:31;;;;;;;1.83;1.67;;;21.00;73.60;;;;;;5002420;28;20200;-70
2024/02/29 10:00:58;;;;;;;1.70;1.60;;;21.10;73.30;;;;;;5001754;28;20192;-70
2024/02/29 10:03:27;;;;;;;1.45;1.08;;;20.90;72.90;;;;;;5001249;28;20205;-70
2024/02/29 10:05:55;;;;;;;1.73;1.60;;;21.10;73.20;;;;;;5002118;28;20672;-70
2024/02/29 10:08:22;;;;;;;1.58;1.20;;;21.10;73.10;;;;;;4999683;28;20681;-69
2024/02/29 10:10:49;;;;;;;2.30;1.40;;;20.90;72.50;;;;;;4997050;28;20207;-69
2024/02/29 10:13:16;;;;;;;1.30;1.20;;;21.00;72.70;;;;;;5002748;28;20224;-71
2024/02/29 10:15:43;;;;;;;1.63;1.35;;;20.90;72.30;;;;;;5004063;28;20292;-66
2024/02/29 10:18:10;;;;;;;1.45;1.30;;;21.60;73.10;;;;;;5003799;28;20201;-71
2024/02/29 10:20:37;;;;;;;1.40;1.30;;;21.30;72.70;;;;;;4995261;28;20294;-69
2024/02/29 10:23:12;;;;;;;1.40;1.23;;;21.00;73.00;;;;;;4999914;28;20212;-71
2024/02/29 10:25:41;;;;;;;1.50;1.40;;;20.90;72.10;;;;;;5004156;28;20195;-72
2024/02/29 10:28:14;;;;;;;1.20;1.00;;;21.10;72.50;;;;;;5001208;28;20211;-71
2024/02/29 10:30:41;;;;;;;2.75;1.63;;;21.10;72.60;;;;;;5001392;28;20211;-69
2024/02/29 10:33:10;;;;;;;1.40;1.30;;;21.10;72.50;;;;;;5002562;28;20243;-66
2024/02/29 10:35:38;;;;;;;1.30;1.20;;;21.30;72.80;;;;;;5001260;28;20604;-67
2024/02/29 10:38:08;;;;;;;1.38;1.27;;;21.10;72.30;;;;;;4995140;28;20337;-70
2024/02/29 10:40:36;;;;;;;1.40;1.30;;;21.10;72.60;;;;;;5001099;28;20204;-72
2024/02/29 10:43:03;;;;;;;1.40;1.15;;;21.30;72.80;;;;;;4999597;28;20227;-69
2024/02/29 10:45:33;;;;;;;1.40;1.20;;;21.10;72.80;;;;;;5001457;28;20209;-69
2024/02/29 10:48:07;;;;;;;1.30;1.02;;;21.20;72.50;;;;;;5000379;28;20204;-66
2024/02/29 10:50:43;;;;;;;1.73;1.40;;;21.20;72.50;;;;;;5002331;28;20661;-67
2024/02/29 10:53:17;;;;;;;1.40;1.10;;;21.10;72.30;;;;;;5000409;28;20235;-67
2024/02/29 10:55:50;;;;;;;1.30;1.20;;;21.30;72.70;;;;;;5004142;28;20647;-67
2024/02/29 10:58:24;;;;;;;1.42;1.25;;;21.30;72.60;;;;;;5004785;28;20193;-67
2024/02/29 11:00:50;;;;;;;1.47;1.20;;;21.30;72.70;;;;;;5004385;28;20219;-70
2024/02/29 11:03:19;;;;;;;2.75;1.10;;;21.40;72.80;;;;;;5003671;28;20468;-68
2024/02/29 11:05:46;;;;;;;1.47;1.33;;;21.30;72.80;;;;;;5002123;28;20203;-69
2024/02/29 11:08:14;;;;;;;3.50;1.50;;;21.40;72.70;;;;;;4999048;28;20467;-69
2024/02/29 11:10:41;;;;;;;3.80;1.30;;;21.40;72.70;;;;;;4996123;28;20574;-70
2024/02/29 11:13:09;;;;;;;2.35;0.95;;;21.50;72.80;;;;;;5000756;28;20878;-68
2024/02/29 11:15:43;;;;;;;1.75;1.10;;;21.40;72.80;;;;;;5000781;28;20623;-70
2024/02/29 11:18:21;;;;;;;1.70;1.00;;;21.80;73.30;;;;;;5006361;28;20208;-73
2024/02/29 11:20:47;;;;;;;1.58;1.15;;;21.50;72.70;;;;;;5003637;28;20470;-69
2024/02/29 11:23:15;;;;;;;1.20;1.00;;;21.50;72.80;;;;;;5005860;28;20207;-67
2024/02/29 11:25:43;;;;;;;2.00;1.30;;;21.80;73.00;;;;;;5001551;28;20953;-70
2024/02/29 11:28:11;;;;;;;1.60;1.30;;;21.60;72.80;;;;;;5007062;28;20563;-69
2024/02/29 11:30:38;;;;;;;4.07;1.30;;;21.50;72.70;;;;;;5007314;28;20467;-74
2024/02/29 11:33:09;;;;;;;2.72;1.30;;;21.60;72.90;;;;;;5009099;28;20487;-69
2024/02/29 11:35:36;;;;;;;1.20;1.00;;;22.00;73.20;;;;;;5005264;28;20196;-70
2024/02/29 11:38:03;;;;;;;2.00;1.50;;;21.50;72.70;;;;;;5000765;28;20200;-67
2024/02/29 11:40:34;;;;;;;1.60;1.42;;;21.90;73.40;;;;;;5002926;28;20906;-67
2024/02/29 11:43:01;;;;;;;1.73;1.40;;;22.10;73.10;;;;;;5004178;28;20212;-69
2024/02/29 11:45:31;;;;;;;1.30;1.20;;;21.60;72.70;;;;;;5006985;28;20206;-70
2024/02/29 11:47:57;;;;;;;1.70;1.50;;;21.70;72.90;;;;;;5007583;28;20469;-70
2024/02/29 11:50:24;;;;;;;2.47;1.03;;;21.70;72.90;;;;;;5005601;28;20477;-67
2024/02/29 11:52:52;;;;;;;2.15;1.42;;;21.70;72.90;;;;;;5002612;28;20537;-66
2024/02/29 11:55:19;;;;;;;1.10;1.00;;;21.50;73.30;;;;;;5002537;28;20205;-67
2024/02/29 11:57:47;;;;;;;1.40;1.20;;;21.70;72.80;;;;;;5002276;28;22222;-66
2024/02/29 12:00:14;;;;;;;1.30;1.10;;;21.70;72.70;;;;;;5006400;28;20466;-66
2024/02/29 12:02:43;;;;;;;1.30;1.13;;;21.80;73.00;;;;;;5001549;28;20474;-71
2024/02/29 12:05:10;;;;;;;1.20;1.00;;;21.80;72.90;;;;;;5005237;28;20458;-73
2024/02/29 12:07:37;;;;;;;2.27;1.20;;;21.80;72.60;;;;;;4998774;28;20703;-73
2024/02/29 12:10:05;;;;;;;1.40;1.30;;;22.20;73.10;;;;;;5000661;28;20926;-70
2024/02/29 12:12:31;;;;;;;1.53;1.27;;;21.80;72.50;;;;;;4996622;28;20613;-72
2024/02/29 12:14:58;;;;;;;1.40;1.10;;;21.70;72.40;;;;;;5000890;28;20490;-65
2024/02/29 12:17:26;;;;;;;1.50;1.00;;;21.90;72.60;;;;;;4998371;28;20966;-64
2024/02/29 12:19:56;;;;;;;1.20;1.00;;;21.80;72.60;;;;;;5000489;28;20464;-66
2024/02/29 12:22:22;;;;;;;1.30;1.20;;;21.90;72.40;;;;;;5001225;28;20469;-62
2024/02/29 12:24:49;;;;;;;3.00;1.20;;;21.80;72.30;;;;;;5001524;28;20463;-65
2024/02/29 12:27:16;;;;;;;1.30;1.07;;;21.80;72.50;;;;;;5004411;28;20468;-64
2024/02/29 12:29:44;;;;;;;1.97;1.17;;;22.00;73.00;;;;;;4998481;28;20962;-64
2024/02/29 12:32:11;;;;;;;1.50;0.90;;;22.10;72.90;;;;;;5002095;28;21054;-63
2024/02/29 12:34:38;;;;;;;1.30;1.20;;;21.70;72.60;;;;;;4999355;28;20973;-64
2024/02/29 12:37:10;;;;;;;2.20;1.70;;;21.60;72.60;;;;;;4990615;28;20454;-64
2024/02/29 12:39:36;;;;;;;1.60;1.30;;;21.80;72.50;;;;;;5000772;28;20685;-64
2024/02/29 12:42:03;;;;;;;1.27;1.17;;;21.80;72.40;;;;;;5002800;28;20486;-65
2024/02/29 12:44:30;;;;;;;1.00;0.83;;;21.90;72.80;;;;;;4997081;28;20930;-64
2024/02/29 12:46:57;;;;;;;2.23;1.20;;;21.90;72.60;;;;;;4998242;28;20466;-64
2024/02/29 12:49:24;;;;;;;1.40;1.10;;;21.90;73.20;;;;;;4999739;28;20474;-64